Time;durP1;ratioP1;P1;durP2;ratioP2;P2;SDS_P1;SDS_P2;PMS_P1;PMS_P2;Temp;Humidity;BMP_temperature;BMP_pressure;BME280_temperature;BME280_humidity;BME280_pressure;Samples;Min_cycle;Max_cycle;Signal;HPM_P1;HPM_P2
2024/01/03 00:10:10;;;;;;;0.88;0.50;;;;;;;18.98;51.62;94727.63;20843092;28;20052;-56
2024/01/03 00:20:29;;;;;;;1.00;0.63;;;;;;;18.96;51.70;94729.94;20883867;28;20033;-59
2024/01/03 00:30:49;;;;;;;3.03;0.73;;;;;;;18.95;51.80;94741.84;20847802;28;20044;-60
2024/01/03 00:41:12;;;;;;;0.88;0.60;;;;;;;18.93;51.65;94744.16;20887104;28;20048;-59
2024/01/03 00:51:31;;;;;;;1.38;0.60;;;;;;;18.88;51.77;94739.09;20847998;28;20663;-57
2024/01/03 01:01:51;;;;;;;0.98;0.60;;;;;;;18.86;51.45;94750.25;20867741;28;20064;-57
2024/01/03 01:12:11;;;;;;;0.85;0.50;;;;;;;18.86;51.56;94762.97;20891862;28;20051;-56
2024/01/03 01:22:30;;;;;;;2.08;0.63;;;;;;;18.83;51.55;94769.88;20891168;28;20067;-56
2024/01/03 01:32:51;;;;;;;1.35;0.55;;;;;;;18.81;51.72;94777.56;20851483;28;20098;-56
2024/01/03 01:43:11;;;;;;;0.40;0.40;;;;;;;18.81;51.88;94784.88;20827011;28;20240;-56
2024/01/03 01:53:31;;;;;;;1.35;0.45;;;;;;;18.76;51.65;94784.03;20859998;28;20056;-56
2024/01/03 02:03:52;;;;;;;1.98;0.50;;;;;;;18.74;51.54;94786.31;20852398;28;20049;-56
2024/01/03 02:14:12;;;;;;;1.27;0.40;;;;;;;18.74;51.65;94775.53;20855852;28;20057;-56
2024/01/03 02:24:31;;;;;;;1.33;0.50;;;;;;;18.71;51.51;94783.56;20836377;28;20052;-55
2024/01/03 02:34:51;;;;;;;0.88;0.40;;;;;;;18.69;51.62;94793.97;20857193;28;20094;-56
2024/01/03 02:45:10;;;;;;;0.50;0.50;;;;;;;18.67;51.62;94810.50;20854988;28;20422;-56
2024/01/03 02:55:29;;;;;;;0.38;0.38;;;;;;;18.65;51.57;94820.88;20873552;28;20270;-56
2024/01/03 03:05:49;;;;;;;0.60;0.40;;;;;;;18.66;51.60;94813.56;20844334;28;20041;-56
2024/01/03 03:16:08;;;;;;;0.85;0.45;;;;;;;18.65;51.53;94812.00;20865978;28;20049;-56
2024/01/03 03:26:28;;;;;;;0.45;0.45;;;;;;;18.62;51.53;94818.13;20873856;28;20057;-56
2024/01/03 03:36:47;;;;;;;0.35;0.35;;;;;;;18.59;51.55;94819.66;20872850;28;20045;-56
2024/01/03 03:47:07;;;;;;;0.60;0.30;;;;;;;18.58;51.58;94807.28;20901315;28;20295;-56
2024/01/03 03:57:29;;;;;;;0.35;0.35;;;;;;;18.57;51.68;94822.69;20870021;28;20108;-59
2024/01/03 04:07:48;;;;;;;0.47;0.22;;;;;;;18.54;51.58;94826.16;20817729;28;20038;-60
2024/01/03 04:18:08;;;;;;;0.30;0.30;;;;;;;18.54;51.69;94833.44;20799638;28;20103;-59
2024/01/03 04:28:27;;;;;;;0.50;0.30;;;;;;;18.51;51.53;94823.41;20817240;28;20049;-59
2024/01/03 04:38:47;;;;;;;0.40;0.40;;;;;;;18.51;51.73;94824.16;20780301;28;20421;-58
2024/01/03 04:49:06;;;;;;;0.57;0.38;;;;;;;18.47;51.55;94828.72;20799517;28;20049;-59
2024/01/03 04:59:26;;;;;;;0.50;0.30;;;;;;;18.44;51.53;94821.38;20843626;28;20041;-59
2024/01/03 05:09:45;;;;;;;0.85;0.50;;;;;;;18.46;51.84;94851.44;20863948;28;20080;-58
2024/01/03 05:20:05;;;;;;;0.55;0.40;;;;;;;18.47;52.86;94849.53;20868483;28;20053;-58
2024/01/03 05:30:25;;;;;;;0.32;0.32;;;;;;;18.47;52.59;94881.88;20876052;28;20049;-58
2024/01/03 05:40:44;;;;;;;2.15;0.40;;;;;;;18.49;52.99;94868.81;20855340;28;20448;-58
2024/01/03 05:51:06;;;;;;;0.50;0.30;;;;;;;18.52;52.87;94870.78;20864878;28;20072;-56
2024/01/03 06:01:25;;;;;;;7.80;1.80;;;;;;;18.52;50.04;94881.56;20853929;28;20087;-56
2024/01/03 06:11:45;;;;;;;2.25;0.70;;;;;;;18.50;52.25;94890.03;20849008;28;20056;-54
2024/01/03 06:22:04;;;;;;;11.85;3.58;;;;;;;18.55;51.56;94905.88;20843697;28;20409;-56
2024/01/03 06:32:23;;;;;;;16.85;4.15;;;;;;;18.61;51.39;94908.28;20849256;28;20044;-55
2024/01/03 06:42:43;;;;;;;15.50;3.90;;;;;;;18.69;51.37;94923.41;20873123;28;20056;-56
2024/01/03 06:53:03;;;;;;;14.75;3.78;;;;;;;18.77;51.20;94917.75;20860492;28;20052;-56
2024/01/03 07:03:22;;;;;;;13.85;4.00;;;;;;;18.87;51.15;94931.78;20800175;28;20076;-58
2024/01/03 07:13:42;;;;;;;9.95;4.00;;;;;;;18.93;51.02;94968.91;20862803;28;20041;-57
2024/01/03 07:24:01;;;;;;;10.05;3.47;;;;;;;19.00;50.76;94970.91;20843858;28;20386;-55
2024/01/03 07:34:21;;;;;;;9.98;3.58;;;;;;;19.05;50.65;94989.50;20888478;28;20507;-54
2024/01/03 07:44:42;;;;;;;10.07;3.38;;;;;;;19.09;50.51;94998.41;20878614;28;20049;-55
2024/01/03 07:55:02;;;;;;;10.93;3.50;;;;;;;19.17;50.42;95021.66;20851227;28;20045;-54
2024/01/03 08:05:22;;;;;;;10.20;3.53;;;;;;;19.25;50.38;95024.44;20874215;28;20053;-56
2024/01/03 08:15:42;;;;;;;9.52;3.60;;;;;;;19.28;50.24;95026.44;20874064;28;20041;-58
2024/01/03 08:26:12;;;;;;;11.50;3.88;;;;;;;19.32;50.25;95029.94;20874471;28;20102;-57
2024/01/03 08:36:40;;;;;;;8.35;3.53;;;;;;;19.33;50.16;95045.78;20871641;28;20057;-58
2024/01/03 08:46:59;;;;;;;7.82;3.22;;;;;;;19.42;50.07;95037.41;20871770;28;20052;-58
2024/01/03 08:57:19;;;;;;;9.65;3.25;;;;;;;19.45;50.06;95042.09;20855160;28;20068;-56
2024/01/03 09:07:38;;;;;;;6.25;3.40;;;;;;;19.50;50.40;95070.69;20885251;28;20040;-58
2024/01/03 09:17:58;;;;;;;7.65;3.47;;;;;;;19.53;50.50;95084.25;20798956;28;20061;-57
2024/01/03 09:28:17;;;;;;;6.80;2.95;;;;;;;19.58;50.34;95077.75;20871493;28;20191;-58
2024/01/03 09:38:37;;;;;;;5.25;2.65;;;;;;;19.63;50.21;95077.44;20793841;28;20057;-56
2024/01/03 09:48:57;;;;;;;7.13;2.72;;;;;;;19.71;49.98;95079.09;20825234;28;20045;-58
2024/01/03 09:59:19;;;;;;;6.57;2.88;;;;;;;19.77;49.88;95079.56;20831650;28;20126;-58
2024/01/03 10:09:46;;;;;;;4.07;2.40;;;;;;;19.76;49.81;95080.72;20832377;28;20402;-57
2024/01/03 10:20:24;;;;;;;6.05;2.50;;;;;;;19.82;49.58;95060.34;20890963;28;20040;-56
2024/01/03 10:30:51;;;;;;;4.43;2.30;;;;;;;19.84;49.52;95047.22;20843891;28;20379;-57
2024/01/03 10:41:11;;;;;;;3.92;2.30;;;;;;;19.89;49.33;95046.13;20849169;28;20060;-57
2024/01/03 10:51:35;;;;;;;4.43;2.22;;;;;;;19.93;49.13;95028.81;20814771;28;20088;-58
2024/01/03 11:01:58;;;;;;;5.13;2.55;;;;;;;19.99;49.16;95009.56;20802200;28;20468;-57
2024/01/03 11:12:18;;;;;;;3.55;2.00;;;;;;;19.95;49.08;95004.91;20849725;28;20709;-57
2024/01/03 11:22:57;;;;;;;4.53;2.05;;;;;;;20.02;48.88;95017.69;20827381;28;20045;-58
2024/01/03 11:33:24;;;;;;;4.75;1.90;;;;;;;20.05;48.74;94994.56;20869537;28;20045;-58
2024/01/03 11:43:46;;;;;;;4.22;2.30;;;;;;;20.12;48.63;94989.22;20877729;28;20556;-57
2024/01/03 11:54:06;;;;;;;3.55;2.30;;;;;;;20.15;48.54;94991.97;20875495;28;20071;-58
2024/01/03 12:04:27;;;;;;;3.95;2.22;;;;;;;20.18;48.47;94979.63;20821174;28;20110;-58
2024/01/03 12:14:52;;;;;;;3.40;1.90;;;;;;;20.16;48.44;94976.53;20868938;28;20132;-57
2024/01/03 12:25:24;;;;;;;2.33;1.50;;;;;;;20.18;48.47;94966.09;20823057;28;20107;-56
2024/01/03 12:35:51;;;;;;;3.20;1.73;;;;;;;20.20;48.48;94953.00;20873636;28;20521;-57
2024/01/03 12:46:11;;;;;;;2.88;1.85;;;;;;;20.28;48.25;94949.19;20854220;28;20092;-56
2024/01/03 12:56:30;;;;;;;2.53;1.52;;;;;;;20.23;48.33;94937.94;20796371;28;20057;-58
2024/01/03 13:06:49;;;;;;;2.85;1.65;;;;;;;20.25;48.26;94949.97;20823896;28;20061;-57
2024/01/03 13:17:09;;;;;;;2.17;1.60;;;;;;;20.27;48.23;94931.44;20858891;28;20091;-56
2024/01/03 13:27:29;;;;;;;2.63;1.50;;;;;;;20.29;48.19;94941.88;20867468;28;20071;-57
2024/01/03 13:37:49;;;;;;;2.65;1.58;;;;;;;20.31;48.06;94932.25;20851446;28;20052;-58
2024/01/03 13:48:09;;;;;;;2.75;1.30;;;;;;;20.36;47.95;94936.50;20845313;28;20049;-56
2024/01/03 13:58:28;;;;;;;2.70;1.45;;;;;;;20.31;48.18;94945.00;20802746;28;20474;-58
2024/01/03 14:08:47;;;;;;;1.80;1.23;;;;;;;20.34;48.05;94973.97;20827879;28;20045;-55
2024/01/03 14:19:07;;;;;;;1.90;1.38;;;;;;;20.37;47.97;94962.41;20838976;28;20046;-55
2024/01/03 14:29:27;;;;;;;2.33;1.30;;;;;;;20.32;48.08;94968.16;20847978;28;20101;-56
2024/01/03 14:39:47;;;;;;;1.65;1.30;;;;;;;20.34;48.07;94977.44;20833134;28;20057;-56
2024/01/03 14:50:08;;;;;;;1.70;1.15;;;;;;;20.34;48.00;94982.84;20863015;28;20095;-56
2024/01/03 15:00:27;;;;;;;1.38;1.00;;;;;;;20.29;48.16;94991.31;20835270;28;20838;-55
2024/01/03 15:10:47;;;;;;;1.40;1.10;;;;;;;20.26;48.14;94973.13;20883626;28;20463;-54
2024/01/03 15:21:07;;;;;;;1.63;1.20;;;;;;;20.22;48.27;94995.88;20878546;28;20477;-56
2024/01/03 15:31:27;;;;;;;1.73;1.10;;;;;;;20.22;48.35;94996.66;20849850;28;20037;-56
2024/01/03 15:41:47;;;;;;;1.70;1.10;;;;;;;20.19;48.31;94992.00;20889958;28;20087;-57
2024/01/03 15:52:07;;;;;;;1.77;1.25;;;;;;;20.15;48.30;94991.19;20887840;28;20053;-58
2024/01/03 16:02:27;;;;;;;1.88;1.08;;;;;;;20.14;48.39;94992.34;20866181;28;20061;-56
2024/01/03 16:12:46;;;;;;;1.40;1.00;;;;;;;20.09;48.55;94979.16;20885386;28;20052;-57
2024/01/03 16:23:06;;;;;;;0.95;0.80;;;;;;;20.07;48.60;94989.56;20867750;28;20691;-55
2024/01/03 16:33:26;;;;;;;4.15;1.05;;;;;;;20.03;47.48;94975.22;20864263;28;20087;-55
2024/01/03 16:43:46;;;;;;;4.90;1.75;;;;;;;20.04;48.80;94980.28;20849531;28;20099;-55
2024/01/03 16:54:07;;;;;;;4.90;1.55;;;;;;;20.02;49.73;94992.59;20861054;28;20047;-54
2024/01/03 17:04:26;;;;;;;3.58;1.30;;;;;;;20.01;50.04;94978.28;20843398;28;20103;-54
2024/01/03 17:14:47;;;;;;;4.70;1.08;;;;;;;20.02;50.20;94981.78;20857341;28;20056;-55
2024/01/03 17:25:07;;;;;;;4.45;1.10;;;;;;;19.88;49.06;94961.56;20838439;28;20045;-55
2024/01/03 17:35:26;;;;;;;3.25;1.45;;;;;;;19.87;46.83;94943.78;20825459;28;20052;-56
2024/01/03 17:45:45;;;;;;;4.25;1.30;;;;;;;19.86;46.87;94931.44;20861519;28;20045;-55
2024/01/03 17:56:07;;;;;;;3.35;1.20;;;;;;;19.85;47.38;94938.00;20820740;28;20434;-55
2024/01/03 18:06:27;;;;;;;3.15;1.08;;;;;;;19.84;47.71;94916.75;20786963;28;20809;-53
2024/01/03 18:16:47;;;;;;;1.92;1.20;;;;;;;19.81;48.08;94902.06;20793611;28;20056;-54
2024/01/03 18:27:06;;;;;;;3.50;1.20;;;;;;;19.79;48.29;94898.94;20763262;28;20044;-54
2024/01/03 18:37:27;;;;;;;3.00;1.52;;;;;;;19.78;48.47;94904.72;20751753;28;20050;-54
2024/01/03 18:47:46;;;;;;;2.22;1.08;;;;;;;19.75;48.71;94912.41;20762081;28;20064;-56
2024/01/03 18:58:07;;;;;;;3.65;1.17;;;;;;;19.75;48.90;94925.91;20798476;28;20057;-53
2024/01/03 19:08:27;;;;;;;3.55;0.82;;;;;;;19.73;49.21;94919.34;20820258;28;20061;-55
2024/01/03 19:18:46;;;;;;;2.40;0.93;;;;;;;19.68;49.00;94908.84;20823881;28;20570;-54
2024/01/03 19:29:06;;;;;;;1.60;1.00;;;;;;;19.67;49.33;94918.88;20886063;28;20179;-58
2024/01/03 19:39:26;;;;;;;5.55;1.20;;;;;;;19.65;49.84;94909.59;20886673;28;20052;-58
2024/01/03 19:49:45;;;;;;;2.38;1.17;;;;;;;19.60;50.28;94888.31;20869165;28;20087;-59
2024/01/03 20:00:05;;;;;;;4.93;1.73;;;;;;;19.59;50.82;94906.44;20884135;28;20437;-59
2024/01/03 20:10:25;;;;;;;1.98;1.10;;;;;;;19.61;51.20;94914.19;20888118;28;20049;-59
2024/01/03 20:20:44;;;;;;;2.88;1.25;;;;;;;19.56;51.38;94894.47;20889974;28;20057;-58
2024/01/03 20:31:05;;;;;;;2.30;1.30;;;;;;;19.53;51.60;94900.59;20860656;28;20053;-59
2024/01/03 20:41:24;;;;;;;7.95;1.20;;;;;;;19.52;51.63;94888.25;20876949;28;20056;-59
2024/01/03 20:51:45;;;;;;;2.80;0.90;;;;;;;19.50;51.71;94882.44;20885669;28;20064;-58
2024/01/03 21:02:05;;;;;;;2.80;1.00;;;;;;;19.46;51.78;94872.72;20854827;28;20061;-58
2024/01/03 21:12:24;;;;;;;3.80;0.98;;;;;;;19.46;52.22;94864.63;20869628;28;20486;-58
2024/01/03 21:22:43;;;;;;;2.38;1.10;;;;;;;19.43;52.34;94841.84;20869123;28;20053;-58
2024/01/03 21:33:03;;;;;;;4.38;1.05;;;;;;;19.42;52.52;94817.91;20868813;28;20049;-55
2024/01/03 21:43:23;;;;;;;3.20;0.95;;;;;;;19.41;52.66;94819.84;20893146;28;20036;-58
2024/01/03 21:53:43;;;;;;;4.35;0.90;;;;;;;19.39;52.79;94795.13;20899882;28;20086;-56
2024/01/03 22:04:02;;;;;;;3.63;0.82;;;;;;;19.36;53.01;94787.75;20866984;28;20060;-57
2024/01/03 22:14:26;;;;;;;1.98;0.75;;;;;;;19.34;53.10;94793.53;20864500;28;20119;-54
2024/01/03 22:24:46;;;;;;;6.75;1.23;;;;;;;19.39;52.71;94795.13;20888029;28;20048;-56
2024/01/03 22:35:06;;;;;;;1.48;0.70;;;;;;;19.34;52.71;94781.97;20863166;28;20068;-59
2024/01/03 22:45:26;;;;;;;1.17;0.68;;;;;;;19.31;52.66;94793.53;20863147;28;20325;-58
2024/01/03 22:55:47;;;;;;;3.15;0.80;;;;;;;19.26;52.57;94791.91;20854157;28;20063;-58
2024/01/03 23:06:07;;;;;;;1.52;0.90;;;;;;;19.21;52.63;94796.88;20861090;28;20053;-58
2024/01/03 23:16:27;;;;;;;1.73;0.63;;;;;;;19.19;52.63;94807.25;20840789;28;20074;-57
2024/01/03 23:26:47;;;;;;;1.27;0.90;;;;;;;19.14;52.66;94811.84;20857742;28;20059;-56
2024/01/03 23:37:06;;;;;;;1.58;0.80;;;;;;;19.13;52.64;94809.50;20846074;28;20044;-55
2024/01/03 23:47:26;;;;;;;1.88;0.85;;;;;;;19.09;52.49;94808.69;20853731;28;20057;-58
2024/01/03 23:57:46;;;;;;;1.80;0.60;;;;;;;19.09;52.44;94819.50;20863645;28;20061;-58
